الصفحة الرئيسية
METAR-TAF:

METAR-TAF

مطار :

مطار أبروتسو الدولي

بسكارا, إيطاليا

دائرة عرض: 42-26N, خط طول: 014-12E, ارتفاع: 10 متر

مراقبة الطقس الحالي

تاريخ ووقت الإصدار 1ساعة و 11 دقيقة قبل الساعة 23:50UTC
ريح 4 عقدة من الجنوب الغربي
درجة الحرارة 6°درجة مئوية
الرطوبة 93%
ضغط 1015 hPa
الرؤية 10 كم أو أكثر

METAR: LIBP 282350Z AUTO 23004KT 9999 NCD 06/05 Q1015

زمن: 03:01 (01:01 UTC)

توقعات

تاريخ ووقت الإصدار 2ساعات و 1 دقيقة قبل الساعة 23:00UTC
التوقعات صالحة من29 الساعة 00 UTC إلى 29 الساعة 24 UTC
ريح 5 عقدةمن اتجاهات متغيرة
الرؤية: 7000 متر
غيوم متفرقة على ارتفاع 5000 قدم

TAF: LIBP 282300Z 2900/2924 VRB05KT 7000 SCT050

أرصاد الطقس والتوقعات من أكثر من 4000 مطار (تقارير الطقس للمطار METAR والتنبؤ بالطقس بالمطارTAF).

المحطات المتاحة هي النقط الصفراء والحمراء على الخريطة.

حرك المؤشر فوق النقطة لمعرفة اسم المحطة.

ثم انقر لمعرفة أرصاد وتوقعات الطقس.

لتغيير الخارطة: اضغط على الأزرار الخضراء مع رمز الصليب الأسود للتكبير. على الزر الأخضر مع شرطة للتصغير، أو على الأسهم الخضراء للخرائط المجاورة.


METAR-TAF: